createdAt,value
2022-11-12T08:12:05.457Z,6.23
2022-11-12T08:15:01.703Z,6.36
2022-11-12T08:22:36.028Z,6.68
2022-11-12T08:25:52.565Z,6.83
2022-11-12T08:33:26.537Z,7.14
2022-11-12T08:36:15.596Z,7.23
2022-11-12T08:39:01.982Z,7.33
2022-11-12T08:42:39.660Z,7.43
2022-11-12T08:45:33.623Z,7.52
2022-11-12T08:48:19.860Z,7.64
2022-11-12T08:51:14.845Z,7.73
2022-11-12T08:54:26.032Z,7.79
2022-11-12T08:57:11.799Z,7.96
2022-11-12T08:59:57.525Z,8.11
2022-11-12T09:02:48.020Z,8.16
2022-11-12T09:05:37.451Z,8.29
2022-11-12T09:08:25.892Z,8.42
2022-11-12T09:11:12.373Z,8.59
2022-11-12T09:18:48.222Z,8.77
2022-11-12T09:21:34.208Z,8.89
2022-11-12T09:24:38.197Z,9.03
2022-11-12T09:27:26.896Z,9.16
2022-11-12T09:31:21.217Z,9.36
2022-11-12T09:34:07.345Z,9.42
2022-11-12T09:40:09.828Z,9.46
2022-11-12T09:43:05.003Z,9.54
2022-11-12T09:46:06.777Z,9.66
2022-11-12T09:49:18.439Z,9.76
2022-11-12T09:52:23.450Z,9.82
2022-11-12T09:55:22.416Z,9.87
2022-11-12T09:59:03.555Z,10.01
2022-11-12T10:02:52.551Z,10.14
2022-11-12T10:06:19.089Z,10.29
2022-11-12T10:09:25.706Z,10.43
2022-11-12T10:12:38.071Z,10.49
2022-11-12T10:16:00.469Z,10.66
2022-11-12T10:18:55.528Z,10.86
2022-11-12T10:22:50.599Z,10.90
2022-11-12T10:26:12.154Z,10.98
2022-11-12T10:29:52.225Z,11.13
2022-11-12T10:32:43.192Z,11.36
2022-11-12T10:35:29.248Z,11.47
2022-11-12T10:43:02.721Z,11.63
2022-11-12T10:46:23.326Z,11.82
2022-11-12T10:49:16.396Z,11.95
2022-11-12T10:52:02.504Z,12.04
2022-11-12T10:59:41.046Z,12.43
2022-11-12T11:02:27.955Z,12.61
2022-11-12T11:05:39.493Z,12.73
2022-11-12T11:08:44.521Z,12.82
2022-11-12T11:11:31.672Z,12.92
2022-11-12T11:14:31.931Z,13.10
2022-11-12T11:17:19.190Z,13.28
2022-11-12T11:20:29.296Z,13.40
2022-11-12T11:23:30.642Z,13.52
2022-11-12T11:27:08.925Z,13.65
2022-11-12T11:30:16.992Z,13.75
2022-11-12T11:33:24.579Z,14.05
2022-11-12T11:36:45.655Z,14.25
2022-11-12T11:40:01.587Z,14.35
2022-11-12T11:42:54.993Z,14.46
2022-11-12T11:46:36.108Z,14.60
2022-11-12T11:50:02.859Z,14.99
2022-11-12T11:53:22.114Z,14.95
2022-11-12T11:56:45.348Z,15.23
2022-11-12T12:04:45.789Z,15.16
2022-11-12T12:08:02.228Z,15.55
2022-11-12T12:11:27.354Z,15.57
2022-11-12T12:14:36.631Z,15.73
2022-11-12T12:17:34.302Z,15.97
2022-11-12T12:21:08.381Z,16.07
2022-11-12T12:24:06.251Z,15.94
2022-11-12T12:26:55.172Z,15.93
2022-11-12T12:29:55.795Z,16.09
2022-11-12T12:33:02.585Z,15.86
2022-11-12T12:36:05.415Z,15.87
2022-11-12T12:43:22.595Z,16.06
2022-11-12T12:46:15.859Z,15.83
2022-11-12T12:49:05.328Z,15.82
2022-11-12T12:51:55.792Z,15.98
2022-11-12T12:54:48.144Z,16.04
2022-11-12T12:57:40.180Z,16.04
2022-11-12T13:00:30.776Z,15.95
2022-11-12T13:03:44.924Z,16.17
2022-11-12T13:13:15.616Z,15.90
2022-11-12T13:16:41.382Z,15.87
2022-11-12T13:25:16.814Z,15.69
2022-11-12T13:28:03.332Z,15.56
2022-11-12T13:30:49.517Z,15.48
2022-11-12T13:33:39.062Z,15.39
2022-11-12T13:36:32.350Z,15.37
2022-11-12T13:39:22.709Z,15.36
2022-11-12T13:42:50.693Z,15.27
2022-11-12T13:46:00.825Z,15.15
2022-11-12T13:48:57.624Z,15.06
2022-11-12T13:51:53.357Z,15.01
2022-11-12T13:54:39.913Z,15.03
2022-11-12T13:57:33.121Z,15.20
2022-11-12T14:00:23.171Z,15.04
2022-11-12T14:03:19.441Z,14.95
2022-11-12T14:06:47.698Z,14.90
2022-11-12T14:10:17.397Z,14.81
2022-11-12T14:13:29.074Z,14.75
2022-11-12T14:16:59.238Z,14.67
2022-11-12T14:20:18.617Z,14.62
2022-11-12T14:23:24.839Z,14.54
2022-11-12T14:26:14.000Z,14.48
2022-11-12T14:29:00.808Z,14.39
2022-11-12T14:31:59.884Z,14.28
2022-11-12T14:35:39.023Z,14.16
2022-11-12T14:38:43.216Z,14.09
2022-11-12T14:41:37.279Z,13.99
2022-11-12T14:44:44.469Z,13.90
2022-11-12T14:47:30.096Z,13.82
2022-11-12T14:50:25.114Z,13.72
2022-11-12T14:53:30.379Z,13.60
2022-11-12T14:56:39.098Z,13.51
2022-11-12T14:59:25.382Z,13.42
2022-11-12T15:02:52.260Z,13.31
2022-11-12T15:06:40.885Z,13.22
2022-11-12T15:09:52.422Z,13.09
2022-11-12T15:18:43.612Z,12.81
2022-11-12T15:26:36.325Z,12.55
2022-11-12T15:29:52.797Z,12.44
2022-11-12T15:32:55.786Z,12.36
2022-11-12T15:35:45.243Z,12.26
2022-11-12T15:38:37.797Z,12.18
2022-11-12T15:41:28.531Z,12.09
2022-11-12T15:44:14.612Z,12.02
2022-11-12T15:47:01.649Z,11.94
2022-11-12T15:49:57.176Z,11.86
2022-11-12T15:52:43.106Z,11.78
2022-11-12T15:55:29.326Z,11.71
2022-11-12T15:58:30.078Z,11.63
2022-11-12T16:01:16.200Z,11.57
2022-11-12T16:04:05.406Z,11.49
2022-11-12T16:06:51.941Z,11.42
2022-11-12T16:14:31.794Z,11.23
2022-11-12T16:17:18.742Z,11.15
2022-11-12T16:20:43.003Z,11.07
2022-11-12T16:23:31.862Z,11.00
2022-11-12T16:29:59.950Z,10.84
2022-11-12T16:32:48.742Z,10.76
2022-11-12T16:35:36.277Z,10.72
2022-11-12T16:38:23.219Z,10.65
2022-11-12T16:41:14.460Z,10.59
2022-11-12T16:44:00.182Z,10.50
2022-11-12T16:46:47.029Z,10.45
2022-11-12T16:49:38.412Z,10.38
2022-11-12T16:52:25.854Z,10.31
2022-11-12T16:55:12.638Z,10.26
2022-11-12T16:57:58.607Z,10.19
2022-11-12T17:00:50.118Z,10.15
2022-11-12T17:03:35.764Z,10.08
2022-11-12T17:06:24.323Z,10.01
2022-11-12T17:09:12.385Z,9.94
2022-11-12T17:11:58.057Z,9.86
2022-11-12T17:14:45.491Z,9.81
2022-11-12T17:17:31.577Z,9.73
2022-11-12T17:20:17.513Z,9.68
2022-11-12T17:23:03.391Z,9.58
2022-11-12T17:25:49.174Z,9.50
2022-11-12T17:29:08.095Z,9.39
2022-11-12T17:31:54.575Z,9.34
2022-11-12T17:34:40.585Z,9.30
2022-11-12T17:37:26.074Z,9.24
2022-11-12T17:40:12.200Z,9.18
2022-11-12T17:42:58.092Z,9.12
2022-11-12T17:45:52.397Z,9.08
2022-11-12T17:48:38.825Z,9.02
2022-11-12T17:51:28.072Z,8.97
2022-11-12T17:54:40.061Z,8.90
2022-11-12T17:57:26.036Z,8.81
2022-11-12T18:00:12.868Z,8.74
2022-11-12T18:02:59.291Z,8.68
2022-11-12T18:05:45.737Z,8.62
2022-11-12T18:08:32.088Z,8.56
2022-11-12T18:11:18.791Z,8.50
2022-11-12T18:14:30.381Z,8.36
2022-11-12T18:17:16.753Z,8.26
2022-11-12T18:20:04.243Z,8.20
2022-11-12T18:22:50.950Z,8.15
2022-11-12T18:25:40.805Z,8.13
2022-11-12T18:28:26.627Z,8.07
2022-11-12T18:31:13.822Z,8.06
2022-11-12T18:34:00.271Z,8.02
2022-11-12T18:36:47.645Z,7.98
2022-11-12T18:39:36.204Z,7.91
2022-11-12T18:42:22.099Z,7.83
2022-11-12T18:45:09.221Z,7.82
2022-11-12T18:48:01.886Z,7.77
2022-11-12T18:51:03.546Z,7.73
2022-11-12T18:54:05.409Z,7.68
2022-11-12T18:56:51.778Z,7.56
2022-11-12T18:59:43.579Z,7.50
2022-11-12T19:02:30.649Z,7.42
2022-11-12T19:06:56.820Z,7.36
2022-11-12T19:10:19.906Z,7.33
2022-11-12T19:13:10.340Z,7.28
2022-11-12T19:19:56.632Z,7.26
2022-11-12T19:23:16.288Z,7.25
2022-11-12T19:26:05.102Z,7.23
2022-11-12T19:28:51.438Z,7.20
2022-11-12T19:31:37.701Z,7.18
2022-11-12T19:34:23.722Z,7.18
2022-11-12T19:37:32.349Z,7.14
2022-11-12T19:40:16.134Z,7.05
2022-11-12T19:43:06.063Z,7.01
2022-11-12T19:45:52.283Z,6.97
2022-11-12T19:48:39.388Z,6.97
2022-11-12T19:51:26.005Z,6.97
2022-11-12T19:59:29.349Z,6.82
2022-11-12T20:02:16.508Z,6.77
2022-11-12T20:05:28.674Z,6.77
2022-11-12T20:08:15.131Z,6.77
2022-11-12T20:11:02.276Z,6.80
2022-11-12T20:13:48.368Z,6.84
2022-11-12T20:16:34.241Z,6.87
2022-11-12T20:19:20.309Z,6.90
2022-11-12T20:22:29.196Z,6.97
2022-11-12T20:25:17.615Z,6.95
2022-11-12T20:28:03.836Z,6.94
2022-11-12T20:31:47.658Z,6.95
2022-11-12T20:34:34.004Z,6.96
2022-11-12T20:37:20.180Z,6.97
2022-11-12T20:40:07.444Z,7.00
2022-11-12T20:43:00.569Z,7.00
2022-11-12T20:45:52.070Z,7.01
2022-11-12T20:49:01.136Z,7.03
2022-11-12T21:05:47.322Z,7.09
2022-11-12T21:10:26.569Z,7.09
2022-11-12T21:13:59.437Z,7.11
2022-11-12T21:28:34.586Z,7.15
2022-11-12T21:36:56.452Z,7.13
2022-11-12T21:40:42.350Z,7.09
2022-11-12T21:43:48.110Z,6.84
2022-11-12T21:49:59.260Z,6.88
2022-11-12T21:51:54.415Z,7.00
2022-11-12T22:44:07.070Z,7.31
2022-11-12T23:17:10.159Z,7.36
2022-11-12T23:19:58.325Z,7.41
2022-11-12T23:28:07.947Z,7.38
2022-11-12T23:31:06.616Z,7.43
2022-11-12T23:33:59.144Z,7.41
2022-11-12T23:53:04.367Z,7.42
